Sand Heads, British Columbia

2:11 PM PDT on August 31, 2015 (GMT -0700)
Vancouver International | | Change Station
CLOSE
Current Station
Airport
Location: Vancouver,
Elevation: 13 ft
Nearby Weather Stations

Elev 13 ft 49.18 °N, 123.17 °W | Updated 11 minutes ago

Light Rain
Light Rain Mist
59 °F
Feels Like 59 °F
N
20
Wind Variable Wind from SE
Gusts 26 mph

Today
High -- | Low -- °F
--% Chance of Precip.
Yesterday
High -- | Low -- °F
Precip. -- in
6:28 AM 7:58 PM
Waning Gibbous, 93% visible
Pressure 29.84 in
Visibility 4.0 miles
Clouds Few 1000 ft
Scattered Clouds 4700 ft
Overcast 5800 ft
Dew Point 57 °F
Humidity 94%
Rainfall 0.00 in
Snow Depth Not available.
UV 2 out of 12
Pollen Not available.
Air Quality Not available.
Flu Activity Not available.
METAR CYVR 312100Z 14017G23KT 4SM -RA BR FEW010 SCT047 OVC058 15/14 A2984 RMK CF1SC3SC4 SLP104 DENSITY ALT 100FT
Pressure 29.84 in
Visibility 4.0 miles
Clouds Few 1000 ft
Scattered Clouds 4700 ft
Overcast 5800 ft
Dew Point 57 °F
Humidity 94%
Rainfall 0.00 in
Snow Depth Not available.
UV 2 out of 12
Pollen Not available.
Air Quality Not available.
Flu Activity Not available.
METAR CYVR 312100Z 14017G23KT 4SM -RA BR FEW010 SCT047 OVC058 15/14 A2984 RMK CF1SC3SC4 SLP104 DENSITY ALT 100FT

10-Day Weather Forecast

×

Almanac

Astronomy

Aug. 31, 2015 Rise Set
Actual Time
Civil Twilight
Nautical Twilight
Astronomical Twilight
Moon
Length of Visible Light
Length of Day
Tomorrow will be .
, % of the Moon is Illuminated

Today's Extremes

Country Highs Country Lows

Community

WunderPhotos

Upload Photos

1,851,371 photos uploaded!

WunderBlogs® & News

Nearby

Air Quality

  Air Quality AQ Index Pollutant
Not available.

Snow Depth

Station Depth Elevation

Earthquake Activity

City Distance Mag. Time & Date
Minimum magnitude displayed is 2.5.

Coastal Water Temperatures

Place Temperature

Stations

Nearby Weather Stations

Station Location Temp. Windchill Dew Point Humidity Wind Precip. Elev Updated Type